createdAt,value
2022-10-10T04:48:11.504Z,5.70
2022-10-10T04:50:38.461Z,5.70
2022-10-10T04:53:05.300Z,5.60
2022-10-10T04:55:32.166Z,5.80
2022-10-10T04:57:59.083Z,5.80
2022-10-10T05:00:26.089Z,5.80
2022-10-10T05:02:53.489Z,5.90
2022-10-10T05:05:20.851Z,5.90
2022-10-10T05:07:50.644Z,5.90
2022-10-10T05:10:20.051Z,5.90
2022-10-10T05:12:51.457Z,6.00
2022-10-10T05:15:21.387Z,6.00
2022-10-10T05:17:48.281Z,6.00
2022-10-10T05:20:16.003Z,6.00
2022-10-10T05:22:42.838Z,6.10
2022-10-10T05:25:09.897Z,6.10
2022-10-10T05:27:36.726Z,6.10
2022-10-10T05:30:04.466Z,6.20
2022-10-10T05:32:31.347Z,6.30
2022-10-10T05:34:58.163Z,6.30
2022-10-10T05:37:25.013Z,6.30
2022-10-10T05:39:54.700Z,6.30
2022-10-10T05:42:21.870Z,6.30
2022-10-10T05:44:48.772Z,6.40
2022-10-10T05:47:15.755Z,6.40
2022-10-10T05:49:42.852Z,6.50
2022-10-10T05:52:12.483Z,6.50
2022-10-10T05:54:39.639Z,6.60
2022-10-10T05:57:06.481Z,6.60
2022-10-10T05:59:33.316Z,6.70
2022-10-10T06:02:00.109Z,6.70
2022-10-10T06:04:27.006Z,6.70
2022-10-10T06:06:53.786Z,6.80
2022-10-10T06:09:20.585Z,6.80
2022-10-10T06:11:47.534Z,6.90
2022-10-10T06:14:14.434Z,7.00
2022-10-10T06:16:43.498Z,7.00
2022-10-10T06:19:14.614Z,7.10
2022-10-10T06:21:41.867Z,7.20
2022-10-10T06:24:10.719Z,7.20
2022-10-10T06:26:37.606Z,7.30
2022-10-10T06:29:05.135Z,7.30
2022-10-10T06:31:31.829Z,7.40
2022-10-10T06:33:58.525Z,7.50
2022-10-10T06:36:25.179Z,7.40
2022-10-10T06:38:51.815Z,7.50
2022-10-10T06:41:18.484Z,7.60
2022-10-10T06:43:45.229Z,7.80
2022-10-10T06:46:12.001Z,7.90
2022-10-10T06:48:38.745Z,8.00
2022-10-10T06:51:08.257Z,8.30
2022-10-10T06:53:35.896Z,8.40
2022-10-10T06:56:03.610Z,8.70
2022-10-10T06:58:30.721Z,9.40
2022-10-10T07:01:00.321Z,8.80
2022-10-10T07:03:28.577Z,9.00
2022-10-10T07:05:59.080Z,9.40
2022-10-10T07:08:26.197Z,9.00
2022-10-10T07:10:53.138Z,9.40
2022-10-10T07:13:20.249Z,8.90
2022-10-10T07:15:47.581Z,8.80
2022-10-10T07:18:16.834Z,9.10
2022-10-10T07:20:43.507Z,9.30
2022-10-10T07:23:10.298Z,9.70
2022-10-10T07:25:41.169Z,10.30
2022-10-10T07:28:08.650Z,11.10
2022-10-10T07:30:41.238Z,12.40
2022-10-10T07:33:07.922Z,13.40
2022-10-10T07:35:34.724Z,14.60
2022-10-10T07:38:01.778Z,15.00
2022-10-10T07:40:28.542Z,15.60
2022-10-10T07:42:55.214Z,16.10
2022-10-10T07:45:21.988Z,17.30
2022-10-10T07:47:48.945Z,17.80
2022-10-10T07:50:15.896Z,18.50
2022-10-10T07:52:42.652Z,18.80
2022-10-10T07:55:10.059Z,18.50
2022-10-10T07:57:37.136Z,17.90
2022-10-10T08:00:09.417Z,17.70
2022-10-10T08:02:36.215Z,17.80
2022-10-10T08:05:03.165Z,18.50
2022-10-10T08:07:29.838Z,19.00
2022-10-10T08:09:56.581Z,20.20
2022-10-10T08:12:23.404Z,20.90
2022-10-10T08:14:50.085Z,21.50
2022-10-10T08:17:16.822Z,22.40
2022-10-10T08:19:43.506Z,22.40
2022-10-10T08:22:10.213Z,22.50
2022-10-10T08:24:36.868Z,23.10
2022-10-10T08:27:03.601Z,23.80
2022-10-10T08:29:32.787Z,23.70
2022-10-10T08:31:59.436Z,23.90
2022-10-10T08:34:26.091Z,24.10
2022-10-10T08:36:52.754Z,24.70
2022-10-10T08:39:19.461Z,25.00
2022-10-10T08:42:01.623Z,25.40
2022-10-10T08:44:45.954Z,25.20
2022-10-10T08:47:18.362Z,25.60
2022-10-10T08:50:06.236Z,25.50
2022-10-10T08:52:40.903Z,25.60
2022-10-10T08:55:17.315Z,26.10
2022-10-10T08:57:58.913Z,26.00
2022-10-10T09:00:33.082Z,26.80
2022-10-10T09:03:01.435Z,27.50
2022-10-10T09:05:40.282Z,27.20
2022-10-10T09:08:31.414Z,27.00
2022-10-10T09:11:10.484Z,26.80
2022-10-10T09:13:43.955Z,27.30
2022-10-10T09:16:32.016Z,27.90
2022-10-10T09:19:01.800Z,28.30
2022-10-10T09:21:35.618Z,27.50
2022-10-10T09:24:22.870Z,25.60
2022-10-10T09:27:03.834Z,24.00
2022-10-10T09:29:52.252Z,23.20
2022-10-10T09:32:24.044Z,23.00
2022-10-10T09:35:00.170Z,23.50
2022-10-10T09:37:46.937Z,22.90
2022-10-10T09:40:14.503Z,22.00
2022-10-10T09:42:44.162Z,21.90
2022-10-10T09:45:26.331Z,20.70
2022-10-10T09:47:55.073Z,20.30
2022-10-10T09:50:23.426Z,19.80
2022-10-10T09:52:52.144Z,19.90
2022-10-10T09:55:25.085Z,20.80
2022-10-10T09:57:54.054Z,21.00
2022-10-10T10:00:20.701Z,21.60
2022-10-10T10:03:04.945Z,23.30
2022-10-10T10:05:31.949Z,25.30
2022-10-10T10:07:58.690Z,27.00
2022-10-10T10:10:27.357Z,28.20
2022-10-10T10:12:55.638Z,29.20
2022-10-10T10:15:28.735Z,30.30
2022-10-10T10:18:25.283Z,29.10
2022-10-10T10:21:02.586Z,27.00
2022-10-10T10:23:42.169Z,25.50
2022-10-10T10:26:21.478Z,23.80
2022-10-10T10:28:49.897Z,22.80
2022-10-10T10:31:35.516Z,21.90
2022-10-10T10:34:24.329Z,20.60
2022-10-10T10:36:59.830Z,20.50
2022-10-10T10:39:52.470Z,20.10
2022-10-10T10:42:22.263Z,20.10
2022-10-10T10:45:03.110Z,20.40
2022-10-10T10:48:08.019Z,20.50
2022-10-10T10:50:53.439Z,20.40
2022-10-10T10:53:32.157Z,20.40
2022-10-10T10:56:08.959Z,20.30
2022-10-10T11:01:57.836Z,20.40
2022-10-10T11:05:24.218Z,20.20
2022-10-10T11:08:05.943Z,19.90
2022-10-10T11:10:41.212Z,21.10
2022-10-10T11:13:37.811Z,21.50
2022-10-10T11:16:49.085Z,21.30
2022-10-10T11:19:39.192Z,21.30
2022-10-10T11:22:19.834Z,21.00
2022-10-10T11:24:59.580Z,20.80
2022-10-10T11:28:12.696Z,21.20
2022-10-10T11:30:53.307Z,21.60
2022-10-10T11:33:28.352Z,22.20
2022-10-10T11:36:19.133Z,22.70
2022-10-10T11:38:53.651Z,23.40
2022-10-10T11:41:33.830Z,24.40
2022-10-10T11:44:15.159Z,24.40
2022-10-10T11:46:56.868Z,24.50
2022-10-10T11:49:32.221Z,24.30
2022-10-10T11:52:32.530Z,24.70
2022-10-10T11:55:22.245Z,25.10
2022-10-10T11:58:20.838Z,25.10
2022-10-10T12:00:52.867Z,24.40
2022-10-10T12:03:19.611Z,23.60
2022-10-10T12:05:55.507Z,23.30
2022-10-10T12:08:46.825Z,23.50
2022-10-10T12:11:22.657Z,23.20
2022-10-10T12:13:55.271Z,23.50
2022-10-10T12:16:30.336Z,23.20
2022-10-10T12:19:04.103Z,23.00
2022-10-10T12:21:32.492Z,22.30
2022-10-10T12:24:13.663Z,22.20
2022-10-10T12:26:55.480Z,22.10
2022-10-10T12:48:23.812Z,20.90
2022-10-10T12:51:00.186Z,21.40
2022-10-10T12:53:30.797Z,22.00
2022-10-10T12:56:00.939Z,22.10
2022-10-10T12:58:40.177Z,22.20
2022-10-10T13:01:22.463Z,22.80
2022-10-10T13:03:50.625Z,22.70
2022-10-10T13:06:32.711Z,22.30
2022-10-10T13:09:02.592Z,22.70
2022-10-10T13:11:29.482Z,22.90
2022-10-10T13:13:57.604Z,23.00
2022-10-10T13:16:33.684Z,22.60
2022-10-10T13:19:00.910Z,22.20
2022-10-10T13:21:34.050Z,21.80
2022-10-10T13:24:04.326Z,21.80
2022-10-10T13:26:36.446Z,21.30
2022-10-10T13:29:28.123Z,21.00
2022-10-10T13:32:00.500Z,20.90
2022-10-10T13:34:32.052Z,20.80
2022-10-10T13:37:01.264Z,20.70
2022-10-10T13:39:30.190Z,20.90
2022-10-10T13:41:57.547Z,20.70
2022-10-10T13:44:30.470Z,20.60
2022-10-10T13:46:57.397Z,20.30
2022-10-10T13:49:26.004Z,20.30
2022-10-10T13:52:19.896Z,20.10
2022-10-10T13:54:47.957Z,20.10
2022-10-10T13:57:24.276Z,20.10
2022-10-10T14:00:05.313Z,20.00
2022-10-10T14:02:33.798Z,19.90
2022-10-10T14:05:07.047Z,19.80
2022-10-10T14:07:34.486Z,19.60
2022-10-10T14:10:06.421Z,19.50
2022-10-10T14:12:42.640Z,19.30
2022-10-10T14:15:37.436Z,19.10
2022-10-10T14:18:16.828Z,19.10
2022-10-10T14:20:44.448Z,19.10
2022-10-10T14:23:11.620Z,19.30
2022-10-10T14:25:43.915Z,19.30
2022-10-10T14:28:22.294Z,19.40
2022-10-10T14:30:49.179Z,19.50
2022-10-10T14:33:18.233Z,19.60
2022-10-10T14:35:46.421Z,19.60
2022-10-10T14:38:14.260Z,19.60
2022-10-10T14:40:43.209Z,19.70
2022-10-10T14:43:10.104Z,19.70
2022-10-10T14:45:37.193Z,19.80
2022-10-10T14:48:04.499Z,19.60
2022-10-10T14:50:36.663Z,19.50
2022-10-10T14:53:04.330Z,19.40
2022-10-10T14:55:31.165Z,19.20
2022-10-10T14:57:58.002Z,19.10
2022-10-10T15:00:27.275Z,18.90
2022-10-10T15:02:54.494Z,18.80
2022-10-10T15:05:21.888Z,18.60
2022-10-10T15:07:53.454Z,18.50
2022-10-10T15:10:35.981Z,18.30
2022-10-10T15:13:03.568Z,18.10
2022-10-10T15:15:30.956Z,18.10
2022-10-10T15:17:59.195Z,18.00
2022-10-10T15:20:31.090Z,17.90
2022-10-10T15:23:07.001Z,17.80
2022-10-10T15:25:34.825Z,17.80
2022-10-10T15:28:05.406Z,17.70
2022-10-10T15:30:32.290Z,17.60
2022-10-10T15:32:59.044Z,17.50
2022-10-10T15:35:26.599Z,17.40
2022-10-10T15:37:53.903Z,17.20
2022-10-10T15:40:23.797Z,17.10
2022-10-10T15:42:51.139Z,17.00
2022-10-10T15:45:43.573Z,16.80
2022-10-10T15:48:05.776Z,16.60
2022-10-10T15:50:34.440Z,16.50
2022-10-10T15:53:01.324Z,16.40
2022-10-10T15:55:28.137Z,16.20
2022-10-10T15:57:55.260Z,16.10
2022-10-10T16:00:22.212Z,16.00
2022-10-10T16:02:48.928Z,15.90
2022-10-10T16:05:15.786Z,15.80
2022-10-10T16:07:48.067Z,15.70
2022-10-10T16:10:16.096Z,15.70
2022-10-10T16:12:42.951Z,15.60
2022-10-10T16:15:09.999Z,15.40
2022-10-10T16:17:36.913Z,15.30
2022-10-10T16:20:04.526Z,15.20
2022-10-10T16:22:31.523Z,15.10
2022-10-10T16:27:48.763Z,14.90
2022-10-10T16:30:16.487Z,14.90
2022-10-10T16:32:43.330Z,14.80
2022-10-10T16:35:11.424Z,14.80
2022-10-10T16:37:39.142Z,14.80
2022-10-10T16:40:07.268Z,14.80
2022-10-10T16:42:34.743Z,14.70
2022-10-10T16:45:01.671Z,14.60
2022-10-10T16:47:28.505Z,14.50
2022-10-10T16:49:55.350Z,14.50
2022-10-10T16:52:22.152Z,14.40
2022-10-10T16:54:52.138Z,14.30
2022-10-10T16:57:19.623Z,14.20
2022-10-10T16:59:46.467Z,14.00
2022-10-10T17:02:13.489Z,13.90
2022-10-10T17:04:40.279Z,13.80
2022-10-10T17:07:07.089Z,13.70
2022-10-10T17:09:33.877Z,13.60
2022-10-10T17:12:00.651Z,13.50
2022-10-10T17:14:27.434Z,13.40
2022-10-10T17:19:41.094Z,13.20
2022-10-10T17:22:08.012Z,13.10
2022-10-10T17:24:35.435Z,13.00
2022-10-10T17:27:02.252Z,12.90
2022-10-10T17:29:29.085Z,12.80
2022-10-10T17:31:55.982Z,12.70
2022-10-10T17:34:22.886Z,12.60
2022-10-10T17:36:49.782Z,12.60
2022-10-10T17:39:16.592Z,12.40
2022-10-10T17:41:45.715Z,12.40
2022-10-10T17:44:13.468Z,12.20
2022-10-10T17:46:40.735Z,12.20
2022-10-10T17:49:10.805Z,12.20
2022-10-10T17:51:39.405Z,12.20
2022-10-10T17:54:07.325Z,12.20
2022-10-10T17:56:35.020Z,12.20
2022-10-10T17:59:05.466Z,12.20
2022-10-10T18:01:33.269Z,12.20
2022-10-10T18:04:01.839Z,12.20
2022-10-10T18:06:29.915Z,12.20
2022-10-10T18:08:57.242Z,12.20
2022-10-10T18:11:26.718Z,12.10
2022-10-10T18:13:59.910Z,12.10
2022-10-10T18:16:29.345Z,12.10
2022-10-10T18:18:56.376Z,12.00
2022-10-10T18:21:23.905Z,11.90
2022-10-10T18:23:51.225Z,11.80
2022-10-10T18:26:21.057Z,11.70
2022-10-10T18:28:49.263Z,11.60
2022-10-10T18:31:22.078Z,11.50
2022-10-10T18:33:49.485Z,11.50
2022-10-10T18:36:21.450Z,11.40
2022-10-10T18:38:48.559Z,11.40
2022-10-10T18:41:18.792Z,11.30
2022-10-10T18:43:46.977Z,11.20
2022-10-10T18:46:16.913Z,11.20
2022-10-10T18:48:44.327Z,11.10
2022-10-10T18:51:24.478Z,11.10
2022-10-10T18:53:55.059Z,11.00
2022-10-10T18:56:24.723Z,10.90
2022-10-10T18:58:55.912Z,10.90
2022-10-10T19:01:25.132Z,10.90
2022-10-10T19:03:53.811Z,10.90
2022-10-10T19:06:22.719Z,10.90
2022-10-10T19:08:57.462Z,11.00
2022-10-10T19:11:30.421Z,11.00
2022-10-10T19:13:59.875Z,11.00
2022-10-10T19:16:26.737Z,10.80
2022-10-10T19:18:58.038Z,10.70
2022-10-10T19:21:26.661Z,10.70
2022-10-10T19:23:53.441Z,10.60
2022-10-10T19:26:20.531Z,10.60
2022-10-10T19:28:47.597Z,10.50
2022-10-10T19:31:17.235Z,10.50
2022-10-10T19:33:45.407Z,10.40
2022-10-10T19:36:13.461Z,10.40
2022-10-10T19:38:41.986Z,10.30
2022-10-10T19:41:12.981Z,10.30
2022-10-10T19:43:41.122Z,10.20
2022-10-10T19:46:12.601Z,10.20
2022-10-10T19:48:40.131Z,10.10
2022-10-10T19:51:10.108Z,10.20
2022-10-10T19:53:37.927Z,10.20
2022-10-10T19:56:07.636Z,10.10
2022-10-10T19:58:34.771Z,10.00
2022-10-10T20:01:09.205Z,10.00
2022-10-10T20:03:36.293Z,9.90
2022-10-10T20:06:04.928Z,9.90
2022-10-10T20:08:32.103Z,9.80
2022-10-10T20:10:59.397Z,9.80
2022-10-10T20:13:26.726Z,9.80
2022-10-10T20:15:53.607Z,9.80
2022-10-10T20:18:21.664Z,9.80
2022-10-10T20:20:51.172Z,9.80
2022-10-10T20:23:20.501Z,9.80
2022-10-10T20:25:47.975Z,9.80
2022-10-10T20:28:17.517Z,9.80
2022-10-10T20:30:48.574Z,9.80
2022-10-10T20:33:20.324Z,9.80
2022-10-10T20:35:51.114Z,9.80
2022-10-10T20:38:20.826Z,9.80
2022-10-10T20:40:47.634Z,9.80
2022-10-10T20:43:16.381Z,9.90
2022-10-10T20:45:43.215Z,9.90
2022-10-10T20:48:10.050Z,9.90
2022-10-10T20:50:37.968Z,9.90
2022-10-10T20:53:06.198Z,9.90
2022-10-10T20:55:33.115Z,9.90
2022-10-10T20:58:00.067Z,10.00
2022-10-10T21:00:26.902Z,10.00
2022-10-10T21:02:58.038Z,10.00
2022-10-10T21:05:24.886Z,10.10
2022-10-10T21:07:51.728Z,10.20
2022-10-10T21:10:18.608Z,10.30
2022-10-10T21:12:45.835Z,10.40
2022-10-10T21:15:12.663Z,10.40
2022-10-10T21:17:39.533Z,10.50
2022-10-10T21:20:07.172Z,10.60
2022-10-10T21:22:34.059Z,10.50
2022-10-10T21:25:00.973Z,10.70
2022-10-10T21:27:27.793Z,10.70
2022-10-10T21:29:54.579Z,10.70
2022-10-10T21:32:21.431Z,10.80
2022-10-10T21:34:49.495Z,10.80
2022-10-10T21:37:18.811Z,10.80
2022-10-10T21:39:45.604Z,10.80
2022-10-10T21:42:12.356Z,10.70
2022-10-10T21:44:39.180Z,10.80
2022-10-10T21:47:05.953Z,10.80
2022-10-10T21:49:33.045Z,10.80
2022-10-10T21:51:59.852Z,10.80
2022-10-10T21:54:27.139Z,10.80
2022-10-10T21:56:53.925Z,10.80
2022-10-10T21:59:21.100Z,10.80
2022-10-10T22:01:47.980Z,10.80
2022-10-10T22:04:14.761Z,10.90
2022-10-10T22:06:41.579Z,10.90
2022-10-10T22:09:08.429Z,10.90
2022-10-10T22:11:35.566Z,11.00
2022-10-10T22:14:03.268Z,11.00
2022-10-10T22:16:31.546Z,11.10
2022-10-10T22:18:58.972Z,11.10
2022-10-10T22:21:30.563Z,11.10
2022-10-10T22:23:59.288Z,11.10
2022-10-10T22:26:26.070Z,11.20
2022-10-10T22:28:53.262Z,11.20
2022-10-10T22:31:20.277Z,11.20
2022-10-10T22:33:47.087Z,11.20
2022-10-10T22:36:14.194Z,11.30
2022-10-10T22:38:43.862Z,11.30
2022-10-10T22:41:11.756Z,11.30
2022-10-10T22:43:38.783Z,11.30
2022-10-10T22:46:06.169Z,11.30
2022-10-10T22:48:33.787Z,11.40
2022-10-10T22:51:12.430Z,11.40
2022-10-10T22:53:40.215Z,11.30
2022-10-10T22:56:07.802Z,11.30
2022-10-10T22:58:35.230Z,11.20
2022-10-10T23:01:07.186Z,11.20
2022-10-10T23:03:34.030Z,11.10
2022-10-10T23:06:01.652Z,11.00
2022-10-10T23:08:28.823Z,11.00
2022-10-10T23:10:55.612Z,11.00
2022-10-10T23:13:22.436Z,11.00
2022-10-10T23:15:49.303Z,11.00
2022-10-10T23:18:16.118Z,11.00
2022-10-10T23:20:46.721Z,11.00
2022-10-10T23:23:14.383Z,11.00
2022-10-10T23:25:42.850Z,11.10
2022-10-10T23:28:10.955Z,11.00
2022-10-10T23:30:45.386Z,11.00
2022-10-10T23:33:13.156Z,11.00
2022-10-10T23:35:40.059Z,11.00
2022-10-10T23:38:07.360Z,11.10
2022-10-10T23:40:34.784Z,11.10
2022-10-10T23:43:01.636Z,11.10
2022-10-10T23:45:28.470Z,11.10
2022-10-10T23:47:55.283Z,11.10
2022-10-10T23:50:22.147Z,11.10
2022-10-10T23:52:48.928Z,11.10
2022-10-10T23:55:15.842Z,11.10
2022-10-10T23:57:42.619Z,11.10
